sensor_id;sensor_type;location;lat;lon;timestamp;P1;durP1;ratioP1;P2;durP2;ratioP2
20122;SDS011;10222;50.848;4.336;2024-03-02T00:00:21;1.20;;;0.70;;
20122;SDS011;10222;50.848;4.336;2024-03-02T00:02:52;1.07;;;0.70;;
20122;SDS011;10222;50.848;4.336;2024-03-02T00:05:20;0.63;;;0.43;;
20122;SDS011;10222;50.848;4.336;2024-03-02T00:08:02;0.93;;;0.70;;
20122;SDS011;10222;50.848;4.336;2024-03-02T00:10:42;0.63;;;0.63;;
20122;SDS011;10222;50.848;4.336;2024-03-02T00:13:09;1.57;;;0.60;;
20122;SDS011;10222;50.848;4.336;2024-03-02T00:15:54;0.90;;;0.60;;
20122;SDS011;10222;50.848;4.336;2024-03-02T00:18:33;1.07;;;0.70;;
20122;SDS011;10222;50.848;4.336;2024-03-02T00:23:32;0.50;;;0.50;;
20122;SDS011;10222;50.848;4.336;2024-03-02T00:25:59;1.07;;;0.50;;
20122;SDS011;10222;50.848;4.336;2024-03-02T00:28:30;0.73;;;0.50;;
20122;SDS011;10222;50.848;4.336;2024-03-02T00:31:12;0.93;;;0.60;;
20122;SDS011;10222;50.848;4.336;2024-03-02T00:36:10;0.80;;;0.37;;
20122;SDS011;10222;50.848;4.336;2024-03-02T00:38:50;1.37;;;0.70;;
20122;SDS011;10222;50.848;4.336;2024-03-02T00:41:50;0.50;;;0.50;;
20122;SDS011;10222;50.848;4.336;2024-03-02T00:46:42;1.00;;;0.47;;
20122;SDS011;10222;50.848;4.336;2024-03-02T00:51:42;0.93;;;0.50;;
20122;SDS011;10222;50.848;4.336;2024-03-02T00:54:20;1.80;;;0.50;;
20122;SDS011;10222;50.848;4.336;2024-03-02T00:56:47;0.67;;;0.30;;
20122;SDS011;10222;50.848;4.336;2024-03-02T00:59:14;0.57;;;0.40;;
20122;SDS011;10222;50.848;4.336;2024-03-02T01:01:43;0.43;;;0.43;;
20122;SDS011;10222;50.848;4.336;2024-03-02T01:06:40;0.90;;;0.43;;
20122;SDS011;10222;50.848;4.336;2024-03-02T01:09:09;0.57;;;0.33;;
20122;SDS011;10222;50.848;4.336;2024-03-02T01:11:37;1.00;;;0.53;;
20122;SDS011;10222;50.848;4.336;2024-03-02T01:14:05;0.53;;;0.40;;
20122;SDS011;10222;50.848;4.336;2024-03-02T01:16:34;1.50;;;0.40;;
20122;SDS011;10222;50.848;4.336;2024-03-02T01:19:08;0.37;;;0.37;;
20122;SDS011;10222;50.848;4.336;2024-03-02T01:21:35;0.93;;;0.30;;
20122;SDS011;10222;50.848;4.336;2024-03-02T01:26:33;2.00;;;0.20;;
20122;SDS011;10222;50.848;4.336;2024-03-02T01:29:05;1.57;;;0.50;;
20122;SDS011;10222;50.848;4.336;2024-03-02T01:34:03;0.30;;;0.30;;
20122;SDS011;10222;50.848;4.336;2024-03-02T01:36:35;1.70;;;0.50;;
20122;SDS011;10222;50.848;4.336;2024-03-02T01:39:01;0.67;;;0.27;;
20122;SDS011;10222;50.848;4.336;2024-03-02T01:41:28;1.37;;;0.40;;
20122;SDS011;10222;50.848;4.336;2024-03-02T01:43:56;1.80;;;0.50;;
20122;SDS011;10222;50.848;4.336;2024-03-02T01:46:23;0.30;;;0.30;;
20122;SDS011;10222;50.848;4.336;2024-03-02T01:51:20;0.77;;;0.50;;
20122;SDS011;10222;50.848;4.336;2024-03-02T01:53:46;0.60;;;0.40;;
20122;SDS011;10222;50.848;4.336;2024-03-02T01:56:12;0.70;;;0.40;;
20122;SDS011;10222;50.848;4.336;2024-03-02T01:58:38;2.10;;;0.60;;
20122;SDS011;10222;50.848;4.336;2024-03-02T02:01:07;1.03;;;0.60;;
20122;SDS011;10222;50.848;4.336;2024-03-02T02:13:36;0.63;;;0.47;;
20122;SDS011;10222;50.848;4.336;2024-03-02T02:18:39;2.70;;;0.70;;
20122;SDS011;10222;50.848;4.336;2024-03-02T02:21:05;0.60;;;0.43;;
20122;SDS011;10222;50.848;4.336;2024-03-02T02:23:33;1.90;;;0.47;;
20122;SDS011;10222;50.848;4.336;2024-03-02T02:28:53;5.93;;;0.60;;
20122;SDS011;10222;50.848;4.336;2024-03-02T02:36:20;1.07;;;0.50;;
20122;SDS011;10222;50.848;4.336;2024-03-02T02:38:49;2.50;;;0.53;;
20122;SDS011;10222;50.848;4.336;2024-03-02T02:43:45;1.47;;;0.40;;
20122;SDS011;10222;50.848;4.336;2024-03-02T02:46:14;0.53;;;0.40;;
20122;SDS011;10222;50.848;4.336;2024-03-02T02:51:12;3.83;;;0.83;;
20122;SDS011;10222;50.848;4.336;2024-03-02T02:53:39;1.40;;;0.63;;
20122;SDS011;10222;50.848;4.336;2024-03-02T02:56:11;2.00;;;0.47;;
20122;SDS011;10222;50.848;4.336;2024-03-02T02:58:39;1.63;;;0.60;;
20122;SDS011;10222;50.848;4.336;2024-03-02T03:01:07;0.97;;;0.50;;
20122;SDS011;10222;50.848;4.336;2024-03-02T03:03:34;1.53;;;0.67;;
20122;SDS011;10222;50.848;4.336;2024-03-02T03:06:04;1.17;;;0.70;;
20122;SDS011;10222;50.848;4.336;2024-03-02T03:08:33;3.07;;;0.53;;
20122;SDS011;10222;50.848;4.336;2024-03-02T03:11:00;0.60;;;0.47;;
20122;SDS011;10222;50.848;4.336;2024-03-02T03:13:28;2.07;;;0.90;;
20122;SDS011;10222;50.848;4.336;2024-03-02T03:15:58;0.50;;;0.47;;
20122;SDS011;10222;50.848;4.336;2024-03-02T03:18:26;1.23;;;0.63;;
20122;SDS011;10222;50.848;4.336;2024-03-02T03:20:52;3.10;;;0.60;;
20122;SDS011;10222;50.848;4.336;2024-03-02T03:23:22;1.13;;;0.40;;
20122;SDS011;10222;50.848;4.336;2024-03-02T03:25:50;1.40;;;0.60;;
20122;SDS011;10222;50.848;4.336;2024-03-02T03:30:48;1.43;;;0.60;;
20122;SDS011;10222;50.848;4.336;2024-03-02T03:33:17;2.93;;;0.67;;
20122;SDS011;10222;50.848;4.336;2024-03-02T03:35:49;1.17;;;0.40;;
20122;SDS011;10222;50.848;4.336;2024-03-02T03:38:18;0.73;;;0.43;;
20122;SDS011;10222;50.848;4.336;2024-03-02T03:43:14;1.00;;;0.60;;
20122;SDS011;10222;50.848;4.336;2024-03-02T03:45:41;2.60;;;0.70;;
20122;SDS011;10222;50.848;4.336;2024-03-02T03:48:10;1.50;;;0.60;;
20122;SDS011;10222;50.848;4.336;2024-03-02T03:50:42;0.93;;;0.50;;
20122;SDS011;10222;50.848;4.336;2024-03-02T03:53:08;1.50;;;0.50;;
20122;SDS011;10222;50.848;4.336;2024-03-02T03:58:04;2.10;;;0.77;;
20122;SDS011;10222;50.848;4.336;2024-03-02T04:05:29;1.13;;;0.43;;
20122;SDS011;10222;50.848;4.336;2024-03-02T04:07:58;0.70;;;0.50;;
20122;SDS011;10222;50.848;4.336;2024-03-02T04:10:31;0.93;;;0.50;;
20122;SDS011;10222;50.848;4.336;2024-03-02T04:15:28;1.20;;;0.70;;
20122;SDS011;10222;50.848;4.336;2024-03-02T04:17:54;5.57;;;0.70;;
20122;SDS011;10222;50.848;4.336;2024-03-02T04:20:20;1.83;;;0.60;;
20122;SDS011;10222;50.848;4.336;2024-03-02T04:22:46;1.80;;;0.70;;
20122;SDS011;10222;50.848;4.336;2024-03-02T04:25:18;1.77;;;0.73;;
20122;SDS011;10222;50.848;4.336;2024-03-02T04:27:45;2.53;;;0.50;;
20122;SDS011;10222;50.848;4.336;2024-03-02T04:30:11;1.13;;;0.60;;
20122;SDS011;10222;50.848;4.336;2024-03-02T04:32:38;1.53;;;0.43;;
20122;SDS011;10222;50.848;4.336;2024-03-02T04:35:04;1.37;;;0.50;;
20122;SDS011;10222;50.848;4.336;2024-03-02T04:37:43;2.23;;;0.70;;
20122;SDS011;10222;50.848;4.336;2024-03-02T04:40:11;1.50;;;0.60;;
20122;SDS011;10222;50.848;4.336;2024-03-02T04:42:40;3.80;;;0.40;;
20122;SDS011;10222;50.848;4.336;2024-03-02T04:45:06;5.30;;;0.70;;
20122;SDS011;10222;50.848;4.336;2024-03-02T04:47:33;4.20;;;0.70;;
20122;SDS011;10222;50.848;4.336;2024-03-02T04:52:29;1.47;;;0.50;;
20122;SDS011;10222;50.848;4.336;2024-03-02T04:54:55;0.73;;;0.47;;
20122;SDS011;10222;50.848;4.336;2024-03-02T04:57:43;1.83;;;0.60;;
20122;SDS011;10222;50.848;4.336;2024-03-02T05:00:09;2.03;;;0.60;;
20122;SDS011;10222;50.848;4.336;2024-03-02T05:02:36;2.20;;;0.60;;
20122;SDS011;10222;50.848;4.336;2024-03-02T05:05:03;2.37;;;0.50;;
20122;SDS011;10222;50.848;4.336;2024-03-02T05:07:31;2.63;;;0.50;;
20122;SDS011;10222;50.848;4.336;2024-03-02T05:12:28;2.77;;;0.70;;
20122;SDS011;10222;50.848;4.336;2024-03-02T05:15:06;2.33;;;0.73;;
20122;SDS011;10222;50.848;4.336;2024-03-02T05:17:39;1.43;;;0.97;;
20122;SDS011;10222;50.848;4.336;2024-03-02T05:22:37;4.27;;;0.70;;
20122;SDS011;10222;50.848;4.336;2024-03-02T05:25:04;5.07;;;0.90;;
20122;SDS011;10222;50.848;4.336;2024-03-02T05:27:32;2.20;;;1.13;;
20122;SDS011;10222;50.848;4.336;2024-03-02T05:29:59;2.30;;;0.80;;
20122;SDS011;10222;50.848;4.336;2024-03-02T05:32:26;1.50;;;0.60;;
20122;SDS011;10222;50.848;4.336;2024-03-02T05:34:55;4.03;;;0.90;;
20122;SDS011;10222;50.848;4.336;2024-03-02T05:37:24;2.17;;;0.73;;
20122;SDS011;10222;50.848;4.336;2024-03-02T05:39:53;2.50;;;0.90;;
20122;SDS011;10222;50.848;4.336;2024-03-02T05:42:25;2.03;;;0.70;;
20122;SDS011;10222;50.848;4.336;2024-03-02T05:44:55;4.67;;;1.73;;
20122;SDS011;10222;50.848;4.336;2024-03-02T05:47:21;0.87;;;0.50;;
20122;SDS011;10222;50.848;4.336;2024-03-02T05:49:48;3.03;;;0.80;;
20122;SDS011;10222;50.848;4.336;2024-03-02T05:52:15;2.17;;;0.93;;
20122;SDS011;10222;50.848;4.336;2024-03-02T05:54:44;3.50;;;0.80;;
20122;SDS011;10222;50.848;4.336;2024-03-02T05:57:12;3.80;;;0.83;;
20122;SDS011;10222;50.848;4.336;2024-03-02T05:59:42;2.00;;;0.80;;
20122;SDS011;10222;50.848;4.336;2024-03-02T06:04:40;2.77;;;0.93;;
20122;SDS011;10222;50.848;4.336;2024-03-02T06:07:08;2.63;;;0.80;;
20122;SDS011;10222;50.848;4.336;2024-03-02T06:09:37;5.00;;;0.90;;
20122;SDS011;10222;50.848;4.336;2024-03-02T06:12:09;1.63;;;0.77;;
20122;SDS011;10222;50.848;4.336;2024-03-02T06:14:35;3.40;;;0.73;;
20122;SDS011;10222;50.848;4.336;2024-03-02T06:17:04;2.80;;;0.93;;
20122;SDS011;10222;50.848;4.336;2024-03-02T06:19:33;5.87;;;0.90;;
20122;SDS011;10222;50.848;4.336;2024-03-02T06:26:58;3.63;;;1.10;;
20122;SDS011;10222;50.848;4.336;2024-03-02T06:29:25;4.70;;;0.90;;
20122;SDS011;10222;50.848;4.336;2024-03-02T06:31:51;3.53;;;0.80;;
20122;SDS011;10222;50.848;4.336;2024-03-02T06:34:19;1.43;;;0.60;;
20122;SDS011;10222;50.848;4.336;2024-03-02T06:36:45;2.47;;;0.60;;
20122;SDS011;10222;50.848;4.336;2024-03-02T06:39:12;2.47;;;0.83;;
20122;SDS011;10222;50.848;4.336;2024-03-02T06:41:38;5.67;;;1.27;;
20122;SDS011;10222;50.848;4.336;2024-03-02T06:44:04;2.50;;;0.73;;
20122;SDS011;10222;50.848;4.336;2024-03-02T06:46:31;1.10;;;0.70;;
20122;SDS011;10222;50.848;4.336;2024-03-02T06:48:57;2.30;;;0.90;;
20122;SDS011;10222;50.848;4.336;2024-03-02T06:51:23;3.57;;;1.10;;
20122;SDS011;10222;50.848;4.336;2024-03-02T06:53:49;3.80;;;0.93;;
20122;SDS011;10222;50.848;4.336;2024-03-02T06:56:15;3.47;;;0.87;;
20122;SDS011;10222;50.848;4.336;2024-03-02T06:58:41;2.40;;;1.00;;
20122;SDS011;10222;50.848;4.336;2024-03-02T07:01:08;3.63;;;1.00;;
20122;SDS011;10222;50.848;4.336;2024-03-02T07:03:34;2.50;;;1.10;;
20122;SDS011;10222;50.848;4.336;2024-03-02T07:06:01;2.20;;;0.77;;
20122;SDS011;10222;50.848;4.336;2024-03-02T07:08:29;2.80;;;1.00;;
20122;SDS011;10222;50.848;4.336;2024-03-02T07:10:55;3.80;;;1.43;;
20122;SDS011;10222;50.848;4.336;2024-03-02T07:13:22;5.60;;;1.40;;
20122;SDS011;10222;50.848;4.336;2024-03-02T07:15:49;4.93;;;1.90;;
20122;SDS011;10222;50.848;4.336;2024-03-02T07:18:33;5.37;;;1.10;;
20122;SDS011;10222;50.848;4.336;2024-03-02T07:21:02;2.23;;;0.83;;
20122;SDS011;10222;50.848;4.336;2024-03-02T07:23:28;4.93;;;0.80;;
20122;SDS011;10222;50.848;4.336;2024-03-02T07:25:55;4.77;;;1.20;;
20122;SDS011;10222;50.848;4.336;2024-03-02T07:28:22;4.83;;;1.50;;
20122;SDS011;10222;50.848;4.336;2024-03-02T07:30:57;3.07;;;0.83;;
20122;SDS011;10222;50.848;4.336;2024-03-02T07:33:23;2.80;;;1.30;;
20122;SDS011;10222;50.848;4.336;2024-03-02T07:35:49;1.30;;;0.60;;
20122;SDS011;10222;50.848;4.336;2024-03-02T07:38:16;3.30;;;1.00;;
20122;SDS011;10222;50.848;4.336;2024-03-02T07:40:42;4.43;;;1.17;;
20122;SDS011;10222;50.848;4.336;2024-03-02T07:43:08;4.70;;;1.00;;
20122;SDS011;10222;50.848;4.336;2024-03-02T07:45:35;5.53;;;0.90;;
20122;SDS011;10222;50.848;4.336;2024-03-02T07:48:01;2.67;;;0.87;;
20122;SDS011;10222;50.848;4.336;2024-03-02T07:50:29;2.70;;;1.00;;
20122;SDS011;10222;50.848;4.336;2024-03-02T07:53:00;2.47;;;1.10;;
20122;SDS011;10222;50.848;4.336;2024-03-02T07:55:26;4.53;;;1.10;;
20122;SDS011;10222;50.848;4.336;2024-03-02T07:57:52;4.83;;;1.00;;
20122;SDS011;10222;50.848;4.336;2024-03-02T08:00:18;3.27;;;1.10;;
20122;SDS011;10222;50.848;4.336;2024-03-02T08:02:44;3.60;;;1.13;;
20122;SDS011;10222;50.848;4.336;2024-03-02T08:05:10;4.17;;;1.17;;
20122;SDS011;10222;50.848;4.336;2024-03-02T08:07:36;3.83;;;1.13;;
20122;SDS011;10222;50.848;4.336;2024-03-02T08:10:02;2.00;;;0.93;;
20122;SDS011;10222;50.848;4.336;2024-03-02T08:12:28;4.63;;;1.03;;
20122;SDS011;10222;50.848;4.336;2024-03-02T08:14:54;7.47;;;1.17;;
20122;SDS011;10222;50.848;4.336;2024-03-02T08:17:21;3.70;;;1.60;;
20122;SDS011;10222;50.848;4.336;2024-03-02T08:19:47;4.33;;;1.37;;
20122;SDS011;10222;50.848;4.336;2024-03-02T08:22:14;2.87;;;0.90;;
20122;SDS011;10222;50.848;4.336;2024-03-02T08:24:40;3.43;;;1.00;;
20122;SDS011;10222;50.848;4.336;2024-03-02T08:27:07;5.77;;;1.50;;
20122;SDS011;10222;50.848;4.336;2024-03-02T08:29:34;6.07;;;1.23;;
20122;SDS011;10222;50.848;4.336;2024-03-02T08:32:00;6.17;;;1.10;;
20122;SDS011;10222;50.848;4.336;2024-03-02T08:34:26;3.83;;;1.27;;
20122;SDS011;10222;50.848;4.336;2024-03-02T08:36:52;5.67;;;1.30;;
20122;SDS011;10222;50.848;4.336;2024-03-02T08:39:19;4.97;;;1.03;;
20122;SDS011;10222;50.848;4.336;2024-03-02T08:41:45;8.40;;;1.27;;
20122;SDS011;10222;50.848;4.336;2024-03-02T08:44:12;6.33;;;1.00;;
20122;SDS011;10222;50.848;4.336;2024-03-02T08:46:38;8.53;;;1.60;;
20122;SDS011;10222;50.848;4.336;2024-03-02T08:49:04;10.80;;;1.83;;
20122;SDS011;10222;50.848;4.336;2024-03-02T08:51:30;5.17;;;1.60;;
20122;SDS011;10222;50.848;4.336;2024-03-02T08:53:57;6.37;;;1.63;;
20122;SDS011;10222;50.848;4.336;2024-03-02T08:56:23;3.80;;;0.90;;
20122;SDS011;10222;50.848;4.336;2024-03-02T08:58:49;4.33;;;1.30;;
20122;SDS011;10222;50.848;4.336;2024-03-02T09:01:15;8.33;;;1.47;;
20122;SDS011;10222;50.848;4.336;2024-03-02T09:03:42;4.63;;;0.97;;
20122;SDS011;10222;50.848;4.336;2024-03-02T09:06:12;7.97;;;1.70;;
20122;SDS011;10222;50.848;4.336;2024-03-02T09:08:39;5.30;;;1.27;;
20122;SDS011;10222;50.848;4.336;2024-03-02T09:11:05;2.57;;;0.97;;
20122;SDS011;10222;50.848;4.336;2024-03-02T09:13:33;4.97;;;1.00;;
20122;SDS011;10222;50.848;4.336;2024-03-02T09:15:59;5.30;;;1.00;;
20122;SDS011;10222;50.848;4.336;2024-03-02T09:18:25;7.27;;;1.50;;
20122;SDS011;10222;50.848;4.336;2024-03-02T09:20:51;1.43;;;0.80;;
20122;SDS011;10222;50.848;4.336;2024-03-02T09:23:18;4.97;;;0.80;;
20122;SDS011;10222;50.848;4.336;2024-03-02T09:25:44;3.90;;;0.90;;
20122;SDS011;10222;50.848;4.336;2024-03-02T09:28:10;6.30;;;1.17;;
20122;SDS011;10222;50.848;4.336;2024-03-02T09:30:36;3.57;;;0.63;;
20122;SDS011;10222;50.848;4.336;2024-03-02T09:33:02;6.00;;;1.10;;
20122;SDS011;10222;50.848;4.336;2024-03-02T09:35:28;4.70;;;0.80;;
20122;SDS011;10222;50.848;4.336;2024-03-02T09:37:55;7.70;;;2.30;;
20122;SDS011;10222;50.848;4.336;2024-03-02T09:40:21;11.87;;;3.13;;
20122;SDS011;10222;50.848;4.336;2024-03-02T09:42:47;9.30;;;2.00;;
20122;SDS011;10222;50.848;4.336;2024-03-02T09:45:18;6.50;;;1.93;;
20122;SDS011;10222;50.848;4.336;2024-03-02T09:47:48;6.93;;;2.17;;
20122;SDS011;10222;50.848;4.336;2024-03-02T09:50:15;5.40;;;1.20;;
20122;SDS011;10222;50.848;4.336;2024-03-02T09:52:48;5.13;;;1.30;;
20122;SDS011;10222;50.848;4.336;2024-03-02T09:55:15;6.87;;;1.83;;
20122;SDS011;10222;50.848;4.336;2024-03-02T09:57:42;7.33;;;1.30;;
20122;SDS011;10222;50.848;4.336;2024-03-02T10:00:08;9.10;;;1.17;;
20122;SDS011;10222;50.848;4.336;2024-03-02T10:02:39;5.83;;;1.47;;
20122;SDS011;10222;50.848;4.336;2024-03-02T10:05:06;5.00;;;1.20;;
20122;SDS011;10222;50.848;4.336;2024-03-02T10:07:32;5.13;;;1.00;;
20122;SDS011;10222;50.848;4.336;2024-03-02T10:10:00;6.33;;;1.10;;
20122;SDS011;10222;50.848;4.336;2024-03-02T10:12:37;5.50;;;1.30;;
20122;SDS011;10222;50.848;4.336;2024-03-02T10:15:03;5.73;;;1.30;;
20122;SDS011;10222;50.848;4.336;2024-03-02T10:17:30;4.00;;;1.77;;
20122;SDS011;10222;50.848;4.336;2024-03-02T10:19:58;4.70;;;1.97;;
20122;SDS011;10222;50.848;4.336;2024-03-02T10:22:24;8.40;;;2.07;;
20122;SDS011;10222;50.848;4.336;2024-03-02T10:24:51;8.57;;;2.00;;
20122;SDS011;10222;50.848;4.336;2024-03-02T10:27:19;6.07;;;1.47;;
20122;SDS011;10222;50.848;4.336;2024-03-02T10:29:48;5.00;;;1.10;;
20122;SDS011;10222;50.848;4.336;2024-03-02T10:32:14;3.23;;;1.07;;
20122;SDS011;10222;50.848;4.336;2024-03-02T10:34:41;5.27;;;1.07;;
20122;SDS011;10222;50.848;4.336;2024-03-02T10:37:07;5.60;;;1.17;;
20122;SDS011;10222;50.848;4.336;2024-03-02T10:39:37;9.03;;;1.27;;
20122;SDS011;10222;50.848;4.336;2024-03-02T10:42:06;8.83;;;1.97;;
20122;SDS011;10222;50.848;4.336;2024-03-02T10:44:33;7.27;;;1.60;;
20122;SDS011;10222;50.848;4.336;2024-03-02T10:47:00;5.93;;;2.13;;
20122;SDS011;10222;50.848;4.336;2024-03-02T10:49:30;7.03;;;1.23;;
20122;SDS011;10222;50.848;4.336;2024-03-02T10:51:58;3.90;;;1.07;;
20122;SDS011;10222;50.848;4.336;2024-03-02T10:54:24;7.13;;;1.87;;
20122;SDS011;10222;50.848;4.336;2024-03-02T10:57:01;10.23;;;3.00;;
20122;SDS011;10222;50.848;4.336;2024-03-02T10:59:34;6.70;;;2.47;;
20122;SDS011;10222;50.848;4.336;2024-03-02T11:02:04;8.90;;;2.17;;
20122;SDS011;10222;50.848;4.336;2024-03-02T11:04:33;7.53;;;2.20;;
20122;SDS011;10222;50.848;4.336;2024-03-02T11:07:05;7.90;;;2.43;;
20122;SDS011;10222;50.848;4.336;2024-03-02T11:09:37;6.50;;;1.57;;
20122;SDS011;10222;50.848;4.336;2024-03-02T11:14:31;4.83;;;1.07;;
20122;SDS011;10222;50.848;4.336;2024-03-02T11:17:01;4.07;;;1.10;;
20122;SDS011;10222;50.848;4.336;2024-03-02T11:19:28;8.23;;;1.27;;
20122;SDS011;10222;50.848;4.336;2024-03-02T11:21:55;5.60;;;0.90;;
20122;SDS011;10222;50.848;4.336;2024-03-02T11:27:04;7.23;;;1.10;;
20122;SDS011;10222;50.848;4.336;2024-03-02T11:32:21;3.80;;;1.03;;
20122;SDS011;10222;50.848;4.336;2024-03-02T11:34:50;4.27;;;1.37;;
20122;SDS011;10222;50.848;4.336;2024-03-02T11:37:18;10.33;;;2.00;;
20122;SDS011;10222;50.848;4.336;2024-03-02T11:39:45;6.30;;;1.60;;
20122;SDS011;10222;50.848;4.336;2024-03-02T11:42:12;4.47;;;1.30;;
20122;SDS011;10222;50.848;4.336;2024-03-02T11:44:39;3.27;;;0.97;;
20122;SDS011;10222;50.848;4.336;2024-03-02T11:47:07;3.83;;;0.97;;
20122;SDS011;10222;50.848;4.336;2024-03-02T11:52:03;4.90;;;1.03;;
20122;SDS011;10222;50.848;4.336;2024-03-02T11:54:33;5.50;;;1.00;;
20122;SDS011;10222;50.848;4.336;2024-03-02T11:57:01;4.37;;;1.13;;
20122;SDS011;10222;50.848;4.336;2024-03-02T11:59:31;9.60;;;1.60;;
20122;SDS011;10222;50.848;4.336;2024-03-02T12:01:57;4.97;;;1.27;;
20122;SDS011;10222;50.848;4.336;2024-03-02T12:04:23;4.67;;;1.27;;
20122;SDS011;10222;50.848;4.336;2024-03-02T12:06:56;6.57;;;1.53;;
20122;SDS011;10222;50.848;4.336;2024-03-02T12:09:25;4.93;;;1.53;;
20122;SDS011;10222;50.848;4.336;2024-03-02T12:12:12;5.00;;;1.30;;
20122;SDS011;10222;50.848;4.336;2024-03-02T12:14:49;4.57;;;1.30;;
20122;SDS011;10222;50.848;4.336;2024-03-02T12:17:15;4.20;;;1.10;;
20122;SDS011;10222;50.848;4.336;2024-03-02T12:19:42;2.87;;;0.80;;
20122;SDS011;10222;50.848;4.336;2024-03-02T12:22:09;3.13;;;1.10;;
20122;SDS011;10222;50.848;4.336;2024-03-02T12:24:35;3.83;;;0.80;;
20122;SDS011;10222;50.848;4.336;2024-03-02T12:27:02;4.27;;;1.10;;
20122;SDS011;10222;50.848;4.336;2024-03-02T12:29:28;10.17;;;1.27;;
20122;SDS011;10222;50.848;4.336;2024-03-02T12:31:54;5.13;;;1.40;;
20122;SDS011;10222;50.848;4.336;2024-03-02T12:34:21;4.80;;;1.67;;
20122;SDS011;10222;50.848;4.336;2024-03-02T12:36:48;8.60;;;2.53;;
20122;SDS011;10222;50.848;4.336;2024-03-02T12:39:21;4.70;;;2.07;;
20122;SDS011;10222;50.848;4.336;2024-03-02T12:41:48;3.93;;;1.00;;
20122;SDS011;10222;50.848;4.336;2024-03-02T12:44:16;6.57;;;1.23;;
20122;SDS011;10222;50.848;4.336;2024-03-02T12:46:42;5.17;;;1.70;;
20122;SDS011;10222;50.848;4.336;2024-03-02T12:49:09;3.97;;;1.20;;
20122;SDS011;10222;50.848;4.336;2024-03-02T12:51:42;6.00;;;1.17;;
20122;SDS011;10222;50.848;4.336;2024-03-02T12:54:09;3.97;;;1.20;;
20122;SDS011;10222;50.848;4.336;2024-03-02T12:56:36;3.90;;;1.60;;
20122;SDS011;10222;50.848;4.336;2024-03-02T12:59:03;6.80;;;1.93;;
20122;SDS011;10222;50.848;4.336;2024-03-02T13:01:29;4.93;;;1.70;;
20122;SDS011;10222;50.848;4.336;2024-03-02T13:03:57;5.63;;;2.30;;
20122;SDS011;10222;50.848;4.336;2024-03-02T13:06:23;7.40;;;1.90;;
20122;SDS011;10222;50.848;4.336;2024-03-02T13:08:52;5.50;;;1.63;;
20122;SDS011;10222;50.848;4.336;2024-03-02T13:11:18;6.53;;;1.07;;
20122;SDS011;10222;50.848;4.336;2024-03-02T13:13:44;6.03;;;1.77;;
20122;SDS011;10222;50.848;4.336;2024-03-02T13:16:12;5.43;;;1.57;;
20122;SDS011;10222;50.848;4.336;2024-03-02T13:18:39;2.43;;;0.93;;
20122;SDS011;10222;50.848;4.336;2024-03-02T13:21:05;5.83;;;1.20;;
20122;SDS011;10222;50.848;4.336;2024-03-02T13:23:31;3.47;;;1.20;;
20122;SDS011;10222;50.848;4.336;2024-03-02T13:25:57;4.80;;;2.07;;
20122;SDS011;10222;50.848;4.336;2024-03-02T13:28:27;4.00;;;1.37;;
20122;SDS011;10222;50.848;4.336;2024-03-02T13:30:53;3.93;;;1.80;;
20122;SDS011;10222;50.848;4.336;2024-03-02T13:33:19;5.77;;;1.83;;
20122;SDS011;10222;50.848;4.336;2024-03-02T13:35:48;5.20;;;1.87;;
20122;SDS011;10222;50.848;4.336;2024-03-02T13:38:14;5.70;;;1.87;;
20122;SDS011;10222;50.848;4.336;2024-03-02T13:40:41;3.70;;;1.40;;
20122;SDS011;10222;50.848;4.336;2024-03-02T13:43:07;6.70;;;2.50;;
20122;SDS011;10222;50.848;4.336;2024-03-02T13:45:33;6.43;;;2.33;;
20122;SDS011;10222;50.848;4.336;2024-03-02T13:48:00;5.67;;;1.67;;
20122;SDS011;10222;50.848;4.336;2024-03-02T13:50:28;4.47;;;2.20;;
20122;SDS011;10222;50.848;4.336;2024-03-02T13:52:55;10.03;;;4.10;;
20122;SDS011;10222;50.848;4.336;2024-03-02T13:55:21;13.83;;;5.13;;
20122;SDS011;10222;50.848;4.336;2024-03-02T13:57:47;11.23;;;3.73;;
20122;SDS011;10222;50.848;4.336;2024-03-02T14:00:15;7.27;;;3.03;;
20122;SDS011;10222;50.848;4.336;2024-03-02T14:02:42;4.97;;;2.40;;
20122;SDS011;10222;50.848;4.336;2024-03-02T14:05:08;5.90;;;1.70;;
20122;SDS011;10222;50.848;4.336;2024-03-02T14:07:37;11.80;;;4.87;;
20122;SDS011;10222;50.848;4.336;2024-03-02T14:10:03;9.97;;;3.80;;
20122;SDS011;10222;50.848;4.336;2024-03-02T14:12:30;11.47;;;4.57;;
20122;SDS011;10222;50.848;4.336;2024-03-02T14:14:56;7.30;;;2.93;;
20122;SDS011;10222;50.848;4.336;2024-03-02T14:17:27;5.50;;;2.43;;
20122;SDS011;10222;50.848;4.336;2024-03-02T14:19:53;5.87;;;2.67;;
20122;SDS011;10222;50.848;4.336;2024-03-02T14:22:19;5.53;;;2.53;;
20122;SDS011;10222;50.848;4.336;2024-03-02T14:24:46;4.83;;;1.90;;
20122;SDS011;10222;50.848;4.336;2024-03-02T14:27:14;8.43;;;2.80;;
20122;SDS011;10222;50.848;4.336;2024-03-02T14:29:43;5.63;;;2.07;;
20122;SDS011;10222;50.848;4.336;2024-03-02T14:32:09;5.33;;;2.00;;
20122;SDS011;10222;50.848;4.336;2024-03-02T14:34:36;3.70;;;1.43;;
20122;SDS011;10222;50.848;4.336;2024-03-02T14:37:03;6.70;;;2.37;;
20122;SDS011;10222;50.848;4.336;2024-03-02T14:39:29;6.90;;;3.30;;
20122;SDS011;10222;50.848;4.336;2024-03-02T14:41:59;6.53;;;3.10;;
20122;SDS011;10222;50.848;4.336;2024-03-02T14:44:26;4.87;;;2.10;;
20122;SDS011;10222;50.848;4.336;2024-03-02T14:46:52;7.33;;;2.93;;
20122;SDS011;10222;50.848;4.336;2024-03-02T14:49:18;9.27;;;2.87;;
20122;SDS011;10222;50.848;4.336;2024-03-02T14:51:44;15.87;;;6.87;;
20122;SDS011;10222;50.848;4.336;2024-03-02T14:54:10;12.87;;;4.57;;
20122;SDS011;10222;50.848;4.336;2024-03-02T14:56:36;9.10;;;3.27;;
20122;SDS011;10222;50.848;4.336;2024-03-02T14:59:02;4.27;;;1.47;;
20122;SDS011;10222;50.848;4.336;2024-03-02T15:01:29;5.30;;;1.33;;
20122;SDS011;10222;50.848;4.336;2024-03-02T15:03:54;7.07;;;2.60;;
20122;SDS011;10222;50.848;4.336;2024-03-02T15:06:21;6.40;;;2.00;;
20122;SDS011;10222;50.848;4.336;2024-03-02T15:08:47;3.77;;;1.47;;
20122;SDS011;10222;50.848;4.336;2024-03-02T15:11:13;7.10;;;1.90;;
20122;SDS011;10222;50.848;4.336;2024-03-02T15:13:39;4.00;;;1.77;;
20122;SDS011;10222;50.848;4.336;2024-03-02T15:16:05;6.30;;;3.23;;
20122;SDS011;10222;50.848;4.336;2024-03-02T15:18:31;6.03;;;2.57;;
20122;SDS011;10222;50.848;4.336;2024-03-02T15:20:59;7.60;;;3.60;;
20122;SDS011;10222;50.848;4.336;2024-03-02T15:23:25;7.70;;;1.93;;
20122;SDS011;10222;50.848;4.336;2024-03-02T15:25:53;5.27;;;1.87;;
20122;SDS011;10222;50.848;4.336;2024-03-02T15:28:20;9.03;;;3.13;;
20122;SDS011;10222;50.848;4.336;2024-03-02T15:30:46;10.83;;;2.93;;
20122;SDS011;10222;50.848;4.336;2024-03-02T15:33:12;9.07;;;3.10;;
20122;SDS011;10222;50.848;4.336;2024-03-02T15:35:38;9.10;;;3.37;;
20122;SDS011;10222;50.848;4.336;2024-03-02T15:38:04;8.63;;;2.87;;
20122;SDS011;10222;50.848;4.336;2024-03-02T15:40:30;6.00;;;2.43;;
20122;SDS011;10222;50.848;4.336;2024-03-02T15:42:57;7.43;;;3.10;;
20122;SDS011;10222;50.848;4.336;2024-03-02T15:45:23;13.23;;;5.40;;
20122;SDS011;10222;50.848;4.336;2024-03-02T15:47:51;6.67;;;2.77;;
20122;SDS011;10222;50.848;4.336;2024-03-02T15:50:17;6.90;;;2.20;;
20122;SDS011;10222;50.848;4.336;2024-03-02T15:52:44;4.73;;;2.10;;
20122;SDS011;10222;50.848;4.336;2024-03-02T15:55:11;7.70;;;2.63;;
20122;SDS011;10222;50.848;4.336;2024-03-02T15:57:37;6.00;;;2.60;;
20122;SDS011;10222;50.848;4.336;2024-03-02T16:00:04;7.93;;;2.70;;
20122;SDS011;10222;50.848;4.336;2024-03-02T16:02:30;4.63;;;2.10;;
20122;SDS011;10222;50.848;4.336;2024-03-02T16:04:57;5.27;;;2.10;;
20122;SDS011;10222;50.848;4.336;2024-03-02T16:07:23;5.47;;;2.23;;
20122;SDS011;10222;50.848;4.336;2024-03-02T16:09:49;10.23;;;4.27;;
20122;SDS011;10222;50.848;4.336;2024-03-02T16:12:15;10.13;;;4.07;;
20122;SDS011;10222;50.848;4.336;2024-03-02T16:14:40;7.17;;;2.10;;
20122;SDS011;10222;50.848;4.336;2024-03-02T16:17:06;6.73;;;1.50;;